Aérodrome :







RETROUVEZ-NOUS SUR...

 
LOGIN :

S'inscrire | Disclaimer

   EN    FR    IT 

 









Légende :    VFR   VFR Marginal   IFR   IFR Intensif   IFR Très Intensif
Visi : 
Plafond : 
>= 8 km
>= 3000ft
5 à 8 km
1000 à 3000 ft
1500m à 5 km
500 à 1000 ft
800 à 1500m
200 à 500 ft
< 800m
< 200 ft
Symboles :   Orages  Brouillard  Fortes neiges  Fortes précipitations  Vent > 20 kt






- Altitude de l'aérodrome : 1009 ft
- Code IATA : ORH


KORH - Worcester Regional

DERNIER METAR :
  • 180154Z 32009KT 10SM CLR M12/M23 A3053 RMK AO2 SLP364 T11221228

METARs EXPIRÉS :
  • 180054Z 32007KT 10SM CLR M12/M23 A3054 RMK AO2 SLP366 T11171228
  • 172354Z 32008KT 10SM CLR M11/M23 A3054 RMK AO2 SLP364 T11061228 11072 21106 51015

TAF KORH
Valide du 18 à 00h jusqu'au 19 à 00h UTC


172339Z 1800/1824 32007KT P6SM SKC
FM180100 32010G20KT P6SM SKC
FM181300 29004KT P6SM BKN200
FM181900 17005KT P6SM VCSH OVC090
FM182100 17007KT 2SM -SN OVC030
FM182200 16007KT 1SM -SN OVC015



MET'MAP, la Météo Aéronautique d'un coup d'oeil ! - Copyright ORBIFLY Décembre 2007 - Disclaimer

ORBIFLY MET'MAP TEAM :

Programmation & Développement : Alexandra Zaïnal
Sur une idée originale de : Baudouin d'Aumeries
Assistance à la programmation : Marc-Olivier Méhu
Soutien technique & logistique : Manuel Goepfert

Contact : metmap@orbifly.com




SOURCES & CREDITS :

   NOAA